createdAt,value
2023-02-04T00:00:20.877Z,96833.05
2023-02-04T00:03:08.930Z,96829.34
2023-02-04T00:05:37.174Z,96831.73
2023-02-04T00:08:05.151Z,96829.86
2023-02-04T00:10:33.507Z,96822.70
2023-02-04T00:13:01.650Z,96822.53
2023-02-04T00:15:30.492Z,96821.57
2023-02-04T00:17:58.509Z,96823.41
2023-02-04T00:20:26.499Z,96819.34
2023-02-04T00:22:54.544Z,96830.20
2023-02-04T00:25:22.579Z,96829.67
2023-02-04T00:27:50.677Z,96829.96
2023-02-04T00:30:18.776Z,96832.75
2023-02-04T00:32:46.684Z,96834.02
2023-02-04T00:35:14.642Z,96830.88
2023-02-04T00:37:42.882Z,96834.12
2023-02-04T00:40:11.993Z,96831.50
2023-02-04T00:42:41.146Z,96829.50
2023-02-04T00:45:10.291Z,96832.85
2023-02-04T00:47:39.803Z,96837.12
2023-02-04T00:50:08.008Z,96836.61
2023-02-04T00:52:35.943Z,96828.18
2023-02-04T00:55:04.239Z,96828.42
2023-02-04T00:57:32.191Z,96830.55
2023-02-04T01:00:00.419Z,96825.95
2023-02-04T01:02:28.778Z,96826.95
2023-02-04T01:04:56.777Z,96825.34
2023-02-04T01:07:25.066Z,96819.48
2023-02-04T01:09:54.022Z,96814.56
2023-02-04T01:12:22.526Z,96809.93
2023-02-04T01:14:50.935Z,96807.06
2023-02-04T01:17:19.771Z,96802.36
2023-02-04T01:19:48.254Z,96806.86
2023-02-04T01:22:16.343Z,96805.45
2023-02-04T01:24:44.265Z,96805.77
2023-02-04T01:27:33.768Z,96809.08
2023-02-04T01:30:02.020Z,96809.91
2023-02-04T01:32:29.929Z,96816.06
2023-02-04T01:34:58.106Z,96812.98
2023-02-04T01:37:26.035Z,96823.59
2023-02-04T01:39:53.915Z,96829.44
2023-02-04T01:42:22.211Z,96844.70
2023-02-04T01:44:51.281Z,96848.77
2023-02-04T01:47:20.579Z,96856.09
2023-02-04T01:49:52.784Z,96856.56
2023-02-04T01:52:21.965Z,96852.05
2023-02-04T01:54:50.123Z,96842.77
2023-02-04T01:57:18.162Z,96849.46
2023-02-04T01:59:47.518Z,96855.63
2023-02-04T02:02:48.594Z,96866.84
2023-02-04T02:05:21.013Z,96866.14
2023-02-04T02:07:54.234Z,96866.42
2023-02-04T02:10:23.737Z,96866.80
2023-02-04T02:12:53.717Z,96869.95
2023-02-04T02:15:22.379Z,96864.90
2023-02-04T02:17:53.233Z,96859.39
2023-02-04T02:20:23.969Z,96864.20
2023-02-04T02:23:10.404Z,96868.15
2023-02-04T02:25:38.806Z,96871.40
2023-02-04T02:28:12.775Z,96878.88
2023-02-04T02:30:42.182Z,96878.53
2023-02-04T02:33:10.265Z,96884.00
2023-02-04T02:35:38.340Z,96887.05
2023-02-04T02:38:06.299Z,96889.45
2023-02-04T02:40:35.206Z,96891.92
2023-02-04T02:43:03.439Z,96891.33
2023-02-04T02:45:33.194Z,96891.92
2023-02-04T02:48:02.360Z,96891.16
2023-02-04T02:50:32.562Z,96895.67
2023-02-04T02:53:01.616Z,96898.69
2023-02-04T02:55:30.273Z,96900.41
2023-02-04T02:57:58.630Z,96898.42
2023-02-04T03:00:29.169Z,96903.05
2023-02-04T03:03:07.029Z,96911.05
2023-02-04T03:05:41.521Z,96915.16
2023-02-04T03:08:11.791Z,96921.13
2023-02-04T03:10:40.503Z,96918.27
2023-02-04T03:13:09.209Z,96930.19
2023-02-04T03:15:37.389Z,96932.37
2023-02-04T03:18:06.556Z,96939.41
2023-02-04T03:20:35.422Z,96951.41
2023-02-04T03:23:03.365Z,96958.91
2023-02-04T03:25:31.462Z,96966.79
2023-02-04T03:28:00.132Z,96973.41
2023-02-04T03:30:28.196Z,96973.27
2023-02-04T03:32:56.741Z,96981.98
2023-02-04T03:35:24.733Z,96985.45
2023-02-04T03:37:52.758Z,96998.47
2023-02-04T03:40:20.761Z,97003.49
2023-02-04T03:42:48.643Z,97014.61
2023-02-04T03:45:16.615Z,97020.46
2023-02-04T03:47:44.558Z,97031.71
2023-02-04T03:50:12.569Z,97044.88
2023-02-04T03:52:40.586Z,97076.77
2023-02-04T03:55:08.837Z,97094.31
2023-02-04T03:57:36.765Z,97103.15
2023-02-04T04:00:05.070Z,97127.17
2023-02-04T04:02:40.926Z,97133.95
2023-02-04T04:05:09.862Z,97144.38
2023-02-04T04:07:37.761Z,97152.98
2023-02-04T04:10:07.297Z,97166.46
2023-02-04T04:12:35.469Z,97191.33
2023-02-04T04:15:03.908Z,97209.47
2023-02-04T04:17:32.579Z,97228.45
2023-02-04T04:20:00.459Z,97243.27
2023-02-04T04:22:28.332Z,97256.52
2023-02-04T04:24:56.766Z,97270.50
2023-02-04T04:27:24.660Z,97275.88
2023-02-04T04:29:52.526Z,97295.59
2023-02-04T04:32:21.686Z,97305.39
2023-02-04T04:34:49.698Z,97319.77
2023-02-04T04:37:17.581Z,97335.92
2023-02-04T04:39:45.393Z,97352.17
2023-02-04T04:42:13.271Z,97361.10
2023-02-04T04:44:41.171Z,97373.43
2023-02-04T04:47:09.423Z,97389.30
2023-02-04T04:49:37.440Z,97404.38
2023-02-04T04:52:05.349Z,97409.48
2023-02-04T04:54:33.292Z,97432.52
2023-02-04T04:57:01.316Z,97439.46
2023-02-04T04:59:29.173Z,97457.33
2023-02-04T05:01:57.264Z,97469.23
2023-02-04T05:04:25.301Z,97487.12
2023-02-04T05:06:53.261Z,97501.23
2023-02-04T05:09:21.118Z,97520.11
2023-02-04T05:11:48.982Z,97534.70
2023-02-04T05:14:17.043Z,97549.80
2023-02-04T05:16:44.954Z,97564.09
2023-02-04T05:19:12.967Z,97575.85
2023-02-04T05:21:41.249Z,97595.56
2023-02-04T05:24:09.376Z,97613.74
2023-02-04T05:26:37.266Z,97620.94
2023-02-04T05:29:05.380Z,97632.17
2023-02-04T05:31:33.437Z,97645.48
2023-02-04T05:34:01.377Z,97655.57
2023-02-04T05:36:29.449Z,97676.67
2023-02-04T05:38:57.423Z,97692.52
2023-02-04T05:41:25.281Z,97711.52
2023-02-04T05:43:53.172Z,97724.64
2023-02-04T05:46:21.201Z,97737.40
2023-02-04T05:48:49.258Z,97750.83
2023-02-04T05:51:17.509Z,97766.13
2023-02-04T05:53:45.553Z,97780.56
2023-02-04T05:56:13.529Z,97798.40
2023-02-04T05:58:41.452Z,97812.81
2023-02-04T06:01:09.757Z,97822.63
2023-02-04T06:03:37.839Z,97834.88
2023-02-04T06:06:06.148Z,97859.63
2023-02-04T06:08:34.159Z,97867.60
2023-02-04T06:11:02.040Z,97890.82
2023-02-04T06:13:30.238Z,97902.52
2023-02-04T06:15:58.169Z,97909.67
2023-02-04T06:18:26.228Z,97928.15
2023-02-04T06:20:54.161Z,97947.14
2023-02-04T06:23:22.148Z,97957.66
2023-02-04T06:25:50.365Z,97972.94
2023-02-04T06:28:18.250Z,97985.48
2023-02-04T06:30:46.216Z,97997.19
2023-02-04T06:33:14.144Z,98011.59
2023-02-04T06:35:42.045Z,98014.80
2023-02-04T06:38:09.979Z,98030.06
2023-02-04T06:40:37.890Z,98040.38
2023-02-04T06:43:22.870Z,98052.77
2023-02-04T06:45:52.119Z,98061.39
2023-02-04T06:48:20.245Z,98065.80
2023-02-04T06:50:48.201Z,98082.23
2023-02-04T06:53:16.185Z,98093.92
2023-02-04T06:55:44.082Z,98109.02
2023-02-04T06:58:12.084Z,98116.63
2023-02-04T07:00:40.062Z,98132.06
2023-02-04T07:03:08.015Z,98144.13
2023-02-04T07:05:35.923Z,98156.66
2023-02-04T07:08:03.977Z,98170.58
2023-02-04T07:10:32.221Z,98186.02
2023-02-04T07:13:00.476Z,98201.77
2023-02-04T07:15:28.528Z,98208.57
2023-02-04T07:17:56.805Z,98218.73
2023-02-04T07:20:25.056Z,98231.27
2023-02-04T07:22:52.923Z,98242.08
2023-02-04T07:25:20.784Z,98255.10
2023-02-04T07:27:48.761Z,98264.03
2023-02-04T07:30:17.036Z,98274.55
2023-02-04T07:32:45.014Z,98285.21
2023-02-04T07:35:12.872Z,98289.45
2023-02-04T07:37:40.722Z,98305.91
2023-02-04T07:40:10.400Z,98315.92
2023-02-04T07:42:38.429Z,98321.17
2023-02-04T07:45:11.276Z,98326.27
2023-02-04T07:47:39.195Z,98329.16
2023-02-04T07:50:07.569Z,98332.03
2023-02-04T07:52:36.568Z,98341.36
2023-02-04T07:55:05.278Z,98341.51
2023-02-04T07:57:33.459Z,98346.90
2023-02-04T08:00:01.295Z,98352.98
2023-02-04T08:02:29.326Z,98354.19
2023-02-04T08:04:57.456Z,98364.53
2023-02-04T08:07:25.449Z,98368.55
2023-02-04T08:09:53.350Z,98380.89
2023-02-04T08:15:43.962Z,98398.90
2023-02-04T08:18:11.802Z,98406.50
2023-02-04T08:20:39.666Z,98410.76
2023-02-04T08:23:08.534Z,98414.56
2023-02-04T08:25:36.401Z,98428.02
2023-02-04T08:28:05.308Z,98432.98
2023-02-04T08:30:33.820Z,98433.23
2023-02-04T08:33:02.079Z,98449.27
2023-02-04T08:35:49.202Z,98459.32
2023-02-04T08:38:17.261Z,98467.10
2023-02-04T08:40:45.198Z,98476.16
2023-02-04T08:43:13.194Z,98480.85
2023-02-04T08:45:41.410Z,98489.60
2023-02-04T08:48:09.374Z,98494.30
2023-02-04T08:50:39.070Z,98508.63
2023-02-04T08:53:07.368Z,98517.13
2023-02-04T08:55:35.313Z,98526.14
2023-02-04T08:58:03.388Z,98533.02
2023-02-04T09:00:31.919Z,98532.29
2023-02-04T09:03:26.173Z,98533.50
2023-02-04T09:05:54.326Z,98533.30
2023-02-04T09:08:22.195Z,98538.66
2023-02-04T09:10:50.234Z,98542.90
2023-02-04T09:13:18.558Z,98544.33
2023-02-04T09:15:46.912Z,98549.18
2023-02-04T09:18:15.219Z,98550.94
2023-02-04T09:20:46.390Z,98552.20
2023-02-04T09:23:14.287Z,98560.26
2023-02-04T09:25:43.926Z,98571.63
2023-02-04T09:28:13.381Z,98580.20
2023-02-04T09:30:42.974Z,98584.10
2023-02-04T09:33:12.369Z,98591.80
2023-02-04T09:35:40.650Z,98596.92
2023-02-04T09:38:08.626Z,98603.55
2023-02-04T09:40:54.027Z,98603.13
2023-02-04T09:43:25.162Z,98611.50
2023-02-04T09:45:54.449Z,98611.56
2023-02-04T09:48:24.376Z,98617.09
2023-02-04T09:51:01.516Z,98623.21
2023-02-04T09:53:30.265Z,98628.67
2023-02-04T09:55:58.516Z,98645.30
2023-02-04T09:58:31.497Z,98647.52
2023-02-04T10:01:06.802Z,98649.21
2023-02-04T10:03:34.903Z,98658.92
2023-02-04T10:06:03.434Z,98665.35
2023-02-04T10:08:33.548Z,98660.80
2023-02-04T10:11:01.934Z,98665.45
2023-02-04T10:13:37.814Z,98663.82
2023-02-04T10:16:16.087Z,98670.38
2023-02-04T10:18:44.485Z,98668.14
2023-02-04T10:21:26.140Z,98669.73
2023-02-04T10:23:57.229Z,98667.03
2023-02-04T10:26:30.918Z,98668.83
2023-02-04T10:29:05.519Z,98670.74
2023-02-04T10:31:33.570Z,98669.23
2023-02-04T10:34:32.425Z,98665.08
2023-02-04T10:37:11.909Z,98665.59
2023-02-04T10:39:43.282Z,98673.00
2023-02-04T10:42:23.139Z,98679.17
2023-02-04T10:45:28.834Z,98684.84
2023-02-04T10:47:57.506Z,98680.79
2023-02-04T10:50:27.437Z,98687.64
2023-02-04T10:52:58.249Z,98687.23
2023-02-04T10:55:26.615Z,98695.33
2023-02-04T10:57:54.698Z,98706.53
2023-02-04T11:00:24.861Z,98700.48
2023-02-04T11:03:18.980Z,98709.98
2023-02-04T11:05:47.068Z,98719.23
2023-02-04T11:08:26.698Z,98722.91
2023-02-04T11:11:04.611Z,98726.21
2023-02-04T11:13:43.526Z,98725.42
2023-02-04T11:16:17.760Z,98724.23
2023-02-04T11:18:54.334Z,98724.32
2023-02-04T11:21:29.257Z,98728.23
2023-02-04T11:24:04.295Z,98727.58
2023-02-04T11:26:37.358Z,98730.08
2023-02-04T11:29:05.289Z,98734.87
2023-02-04T11:31:42.160Z,98740.63
2023-02-04T11:34:12.646Z,98751.95
2023-02-04T11:37:06.714Z,98745.45
2023-02-04T11:39:49.177Z,98747.09
2023-02-04T11:42:39.385Z,98750.11
2023-02-04T11:45:18.248Z,98751.25
2023-02-04T11:47:47.409Z,98753.81
2023-02-04T11:50:25.154Z,98762.21
2023-02-04T11:52:57.608Z,98770.77
2023-02-04T11:55:26.293Z,98766.14
2023-02-04T12:01:21.513Z,98773.83
2023-02-04T12:03:56.308Z,98773.89
2023-02-04T12:06:30.085Z,98779.55
2023-02-04T12:09:16.481Z,98776.92
2023-02-04T12:11:55.919Z,98790.05
2023-02-04T12:14:31.388Z,98794.42
2023-02-04T12:16:59.372Z,98792.13
2023-02-04T12:19:28.451Z,98802.61
2023-02-04T12:21:56.358Z,98806.64
2023-02-04T12:24:24.281Z,98804.65
2023-02-04T12:26:52.169Z,98810.67
2023-02-04T12:29:20.183Z,98811.14
2023-02-04T12:31:48.245Z,98811.42
2023-02-04T12:34:19.295Z,98813.73
2023-02-04T12:36:47.357Z,98816.30
2023-02-04T12:39:15.495Z,98810.44
2023-02-04T12:41:43.526Z,98812.24
2023-02-04T12:44:11.420Z,98817.38
2023-02-04T12:46:39.741Z,98817.48
2023-02-04T12:49:09.592Z,98820.08
2023-02-04T12:51:37.847Z,98821.02
2023-02-04T12:54:06.660Z,98824.02
2023-02-04T12:56:34.595Z,98817.97
2023-02-04T12:59:02.816Z,98821.03
2023-02-04T13:01:31.510Z,98827.39
2023-02-04T13:03:59.440Z,98830.55
2023-02-04T13:06:27.332Z,98827.67
2023-02-04T13:08:55.256Z,98828.92
2023-02-04T13:11:23.163Z,98831.31
2023-02-04T13:13:51.087Z,98832.48
2023-02-04T13:16:19.552Z,98838.22
2023-02-04T13:18:47.617Z,98844.60
2023-02-04T13:21:15.598Z,98843.34
2023-02-04T13:23:43.718Z,98843.27
2023-02-04T13:26:11.728Z,98848.59
2023-02-04T13:28:40.121Z,98855.15
2023-02-04T13:31:09.176Z,98858.70
2023-02-04T13:33:37.128Z,98858.98
2023-02-04T13:36:05.556Z,98861.70
2023-02-04T13:38:33.765Z,98863.34
2023-02-04T13:41:02.037Z,98870.72
2023-02-04T13:43:30.001Z,98869.73
2023-02-04T13:45:58.214Z,98875.72
2023-02-04T13:48:26.201Z,98873.48
2023-02-04T13:50:54.756Z,98880.12
2023-02-04T13:53:23.399Z,98885.54
2023-02-04T13:55:51.348Z,98884.98
2023-02-04T13:58:19.394Z,98887.89
2023-02-04T14:00:47.499Z,98886.34
2023-02-04T14:03:15.516Z,98894.45
2023-02-04T14:05:43.859Z,98893.30
2023-02-04T14:08:12.064Z,98894.88
2023-02-04T14:10:39.972Z,98890.11
2023-02-04T14:13:07.959Z,98883.20
2023-02-04T14:15:35.962Z,98879.54
2023-02-04T14:18:04.974Z,98881.80
2023-02-04T14:20:33.149Z,98889.30
2023-02-04T14:23:02.397Z,98898.13
2023-02-04T14:25:30.517Z,98904.20
2023-02-04T14:28:00.181Z,98907.36
2023-02-04T14:30:29.200Z,98916.13
2023-02-04T14:32:57.929Z,98921.65
2023-02-04T14:35:26.403Z,98926.85
2023-02-04T14:38:43.186Z,98929.20
2023-02-04T14:41:10.975Z,98932.67
2023-02-04T14:43:39.353Z,98937.15
2023-02-04T14:46:10.791Z,98939.39
2023-02-04T14:48:38.872Z,98938.88
2023-02-04T14:51:06.977Z,98945.03
2023-02-04T14:53:35.149Z,98945.13
2023-02-04T14:56:03.622Z,98940.27
2023-02-04T14:58:32.534Z,98956.08
2023-02-04T15:01:24.870Z,98951.69
2023-02-04T15:03:53.930Z,98958.16
2023-02-04T15:06:21.984Z,98954.27
2023-02-04T15:09:07.956Z,98954.13
2023-02-04T15:11:36.165Z,98953.95
2023-02-04T15:14:04.538Z,98953.77
2023-02-04T15:16:32.521Z,98955.11
2023-02-04T15:19:00.558Z,98948.34
2023-02-04T15:21:28.715Z,98951.91
2023-02-04T15:23:56.734Z,98954.12
2023-02-04T15:26:25.295Z,98956.84
2023-02-04T15:28:53.556Z,98961.25
2023-02-04T15:31:22.802Z,98960.92
2023-02-04T15:33:50.323Z,98961.09
2023-02-04T15:36:18.361Z,98966.87
2023-02-04T15:38:46.566Z,98965.02
2023-02-04T15:41:14.408Z,98967.73
2023-02-04T15:43:42.448Z,98972.31
2023-02-04T15:46:10.279Z,98974.52
2023-02-04T15:48:38.757Z,98976.38
2023-02-04T15:51:06.840Z,98976.39
2023-02-04T15:53:34.917Z,98978.75
2023-02-04T15:56:02.924Z,98979.59
2023-02-04T15:58:31.482Z,98980.94
2023-02-04T16:01:00.510Z,98984.33
2023-02-04T16:03:30.143Z,98983.48
2023-02-04T16:05:58.475Z,98981.29
2023-02-04T16:08:26.555Z,98982.65
2023-02-04T16:10:54.432Z,98988.41
2023-02-04T16:13:22.407Z,98995.19
2023-02-04T16:15:50.349Z,98997.05
2023-02-04T16:18:18.324Z,98998.23
2023-02-04T16:20:46.441Z,99003.49
2023-02-04T16:23:15.164Z,99008.91
2023-02-04T16:25:43.057Z,99008.58
2023-02-04T16:28:11.328Z,99007.23
2023-02-04T16:30:40.193Z,99007.21
2023-02-04T16:33:08.235Z,99009.58
2023-02-04T16:36:00.593Z,99009.24
2023-02-04T16:38:29.711Z,99006.88
2023-02-04T16:40:58.118Z,99004.34
2023-02-04T16:43:26.328Z,99010.27
2023-02-04T16:45:54.905Z,99005.02
2023-02-04T16:48:23.497Z,99006.88
2023-02-04T16:50:51.975Z,99009.08
2023-02-04T16:53:20.345Z,99017.73
2023-02-04T16:55:48.294Z,99013.66
2023-02-04T16:58:16.829Z,99012.48
2023-02-04T17:00:45.453Z,99018.05
2023-02-04T17:03:14.590Z,99019.23
2023-02-04T17:05:43.304Z,99019.58
2023-02-04T17:08:13.614Z,99024.99
2023-02-04T17:10:41.958Z,99025.84
2023-02-04T17:13:10.338Z,99022.28
2023-02-04T17:15:38.574Z,99016.02
2023-02-04T17:18:06.650Z,99007.70
2023-02-04T17:20:35.741Z,99008.23
2023-02-04T17:23:04.091Z,99008.22
2023-02-04T17:25:32.550Z,99011.10
2023-02-04T17:28:00.868Z,99014.48
2023-02-04T17:30:29.234Z,99012.45
2023-02-04T17:32:57.364Z,99012.46
2023-02-04T17:35:25.286Z,99012.62
2023-02-04T17:37:53.260Z,99018.22
2023-02-04T17:40:21.298Z,99020.77
2023-02-04T17:42:49.225Z,99012.80
2023-02-04T17:45:17.363Z,99018.05
2023-02-04T17:47:47.667Z,99032.80
2023-02-04T17:50:15.913Z,99028.72
2023-02-04T17:52:44.095Z,99033.13
2023-02-04T17:55:27.825Z,99030.93
2023-02-04T17:57:56.900Z,99038.55
2023-02-04T18:00:28.262Z,99036.00
2023-02-04T18:02:57.045Z,99044.48
2023-02-04T18:05:28.362Z,99044.98
2023-02-04T18:08:04.779Z,99046.00
2023-02-04T18:10:36.029Z,99047.18
2023-02-04T18:13:14.017Z,99043.48
2023-02-04T18:15:48.871Z,99040.09
2023-02-04T18:18:31.418Z,99037.38
2023-02-04T18:24:18.564Z,99035.34
2023-02-04T18:26:56.370Z,99036.37
2023-02-04T18:29:35.124Z,99032.80
2023-02-04T18:32:29.464Z,99028.91
2023-02-04T18:34:57.776Z,99029.58
2023-02-04T18:37:34.299Z,99029.93
2023-02-04T18:40:24.260Z,99033.83
2023-02-04T18:43:05.468Z,99040.09
2023-02-04T18:45:33.971Z,99039.59
2023-02-04T18:48:22.054Z,99038.39
2023-02-04T18:50:53.217Z,99048.90
2023-02-04T18:53:27.409Z,99055.00
2023-02-04T18:55:57.773Z,99059.23
2023-02-04T18:58:36.744Z,99068.89
2023-02-04T19:01:11.218Z,99065.84
2023-02-04T19:03:52.267Z,99066.69
2023-02-04T19:06:29.698Z,99071.77
2023-02-04T19:09:10.373Z,99076.34
2023-02-04T19:11:42.541Z,99076.32
2023-02-04T19:14:36.528Z,99081.74
2023-02-04T19:17:14.556Z,99083.77
2023-02-04T19:20:16.719Z,99084.27
2023-02-04T19:23:09.355Z,99082.56
2023-02-04T19:25:46.072Z,99094.42
2023-02-04T19:28:35.742Z,99100.84
2023-02-04T19:31:06.429Z,99098.47
2023-02-04T19:33:45.039Z,99099.30
2023-02-04T19:36:33.431Z,99103.02
2023-02-04T19:39:16.305Z,99098.94
2023-02-04T19:41:47.549Z,99100.79
2023-02-04T19:44:31.155Z,99100.78
2023-02-04T19:47:22.470Z,99096.53
2023-02-04T19:49:51.837Z,99097.02
2023-02-04T19:52:34.198Z,99099.39
2023-02-04T19:55:25.964Z,99103.61
2023-02-04T19:57:58.746Z,99111.88
2023-02-04T20:00:36.992Z,99112.70
2023-02-04T20:03:34.145Z,99115.25
2023-02-04T20:06:37.435Z,99119.34
2023-02-04T20:09:30.474Z,99125.79
2023-02-04T20:12:01.087Z,99129.02
2023-02-04T20:14:36.263Z,99124.29
2023-02-04T20:17:15.116Z,99125.13
2023-02-04T20:19:43.971Z,99126.29
2023-02-04T20:22:18.667Z,99133.38
2023-02-04T20:24:50.140Z,99132.52
2023-02-04T20:27:22.819Z,99138.77
2023-02-04T20:30:01.376Z,99140.46
2023-02-04T20:32:29.798Z,99142.16
2023-02-04T20:35:06.890Z,99142.67
2023-02-04T20:37:35.824Z,99151.29
2023-02-04T20:40:27.294Z,99151.63
2023-02-04T20:43:24.611Z,99148.08
2023-02-04T20:46:24.604Z,99149.63
2023-02-04T20:48:52.892Z,99146.09
2023-02-04T20:51:25.211Z,99149.14
2023-02-04T20:53:55.037Z,99146.62
2023-02-04T20:56:28.631Z,99147.48
2023-02-04T20:59:12.437Z,99147.33
2023-02-04T21:01:40.356Z,99149.21
2023-02-04T21:04:38.701Z,99150.21
2023-02-04T21:07:21.364Z,99152.07
2023-02-04T21:09:50.063Z,99155.60
2023-02-04T21:15:33.309Z,99162.02
2023-02-04T21:18:01.511Z,99165.58
2023-02-04T21:20:29.566Z,99168.61
2023-02-04T21:22:59.018Z,99171.96
2023-02-04T21:25:27.062Z,99176.52
2023-02-04T21:27:55.269Z,99178.37
2023-02-04T21:30:25.773Z,99180.20
2023-02-04T21:32:53.719Z,99185.95
2023-02-04T21:35:21.851Z,99184.09
2023-02-04T21:37:59.416Z,99185.27
2023-02-04T21:40:27.517Z,99182.91
2023-02-04T21:45:57.538Z,99188.31
2023-02-04T21:48:25.718Z,99192.88
2023-02-04T21:50:54.064Z,99202.37
2023-02-04T21:53:22.251Z,99198.96
2023-02-04T21:55:50.279Z,99205.73
2023-02-04T21:58:18.465Z,99212.31
2023-02-04T22:00:46.533Z,99211.13
2023-02-04T22:03:14.526Z,99215.19
2023-02-04T22:05:43.456Z,99217.88
2023-02-04T22:08:12.195Z,99209.73
2023-02-04T22:10:40.346Z,99213.11
2023-02-04T22:13:08.709Z,99218.01
2023-02-04T22:15:36.652Z,99215.27
2023-02-04T22:18:04.803Z,99214.56
2023-02-04T22:20:33.586Z,99218.94
2023-02-04T22:23:03.584Z,99227.70
2023-02-04T22:25:31.861Z,99231.05
2023-02-04T22:28:00.182Z,99235.06
2023-02-04T22:30:28.261Z,99235.20
2023-02-04T22:32:56.199Z,99237.38
2023-02-04T22:35:24.155Z,99239.21
2023-02-04T22:37:52.390Z,99238.36
2023-02-04T22:40:20.506Z,99235.61
2023-02-04T22:42:48.381Z,99235.95
2023-02-04T22:45:16.930Z,99237.42
2023-02-04T22:47:44.809Z,99235.05
2023-02-04T22:50:13.927Z,99239.77
2023-02-04T22:52:43.810Z,99245.00
2023-02-04T22:55:11.925Z,99248.54
2023-02-04T22:57:40.002Z,99253.95
2023-02-04T23:00:12.732Z,99255.64
2023-02-04T23:02:40.711Z,99264.75
2023-02-04T23:05:08.694Z,99267.81
2023-02-04T23:07:39.289Z,99270.00
2023-02-04T23:10:08.354Z,99272.02
2023-02-04T23:12:36.268Z,99272.52
2023-02-04T23:15:05.849Z,99271.85
2023-02-04T23:17:33.706Z,99277.27
2023-02-04T23:20:01.845Z,99274.36
2023-02-04T23:22:29.936Z,99278.55
2023-02-04T23:24:57.975Z,99276.99
2023-02-04T23:27:26.521Z,99285.41
2023-02-04T23:29:54.442Z,99290.29
2023-02-04T23:32:22.358Z,99291.98
2023-02-04T23:34:50.240Z,99294.50
2023-02-04T23:37:18.272Z,99297.00
2023-02-04T23:39:46.274Z,99301.19
2023-02-04T23:42:17.899Z,99301.66
2023-02-04T23:44:45.817Z,99301.98
2023-02-04T23:47:13.788Z,99299.92
2023-02-04T23:49:42.628Z,99301.22
2023-02-04T23:52:10.677Z,99304.86
2023-02-04T23:54:38.611Z,99303.67
2023-02-04T23:57:06.614Z,99303.31
2023-02-04T23:59:35.049Z,99307.84
